createdAt,value
2018-03-12T00:00:20.817Z,9.75
2018-03-12T00:02:52.127Z,8.00
2018-03-12T00:05:23.315Z,9.00
2018-03-12T00:07:56.263Z,8.50
2018-03-12T00:10:27.263Z,9.00
2018-03-12T00:12:58.874Z,9.25
2018-03-12T00:15:30.620Z,8.75
2018-03-12T00:18:01.974Z,10.00
2018-03-12T00:20:35.546Z,10.00
2018-03-12T00:23:07.954Z,9.00
2018-03-12T00:25:39.814Z,9.00
2018-03-12T00:28:11.363Z,9.00
2018-03-12T00:30:43.036Z,9.00
2018-03-12T00:33:15.453Z,9.00
2018-03-12T00:35:47.453Z,8.25
2018-03-12T00:38:18.764Z,8.75
2018-03-12T00:40:50.433Z,9.00
2018-03-12T00:43:22.774Z,10.00
2018-03-12T00:45:54.925Z,9.00
2018-03-12T00:48:26.331Z,8.50
2018-03-12T00:50:59.145Z,10.00
2018-03-12T00:53:30.912Z,8.25
2018-03-12T00:56:07.188Z,8.00
2018-03-12T00:58:38.643Z,10.75
2018-03-12T01:01:10.324Z,9.75
2018-03-12T01:03:41.872Z,9.00
2018-03-12T01:06:14.444Z,9.25
2018-03-12T01:08:45.919Z,10.75
2018-03-12T01:11:18.107Z,9.25
2018-03-12T01:13:50.449Z,9.00
2018-03-12T01:16:22.491Z,11.25
2018-03-12T01:18:53.860Z,10.25
2018-03-12T01:21:25.223Z,9.00
2018-03-12T01:23:56.904Z,9.00
2018-03-12T01:26:28.405Z,10.75
2018-03-12T01:28:59.976Z,9.00
2018-03-12T01:31:32.003Z,9.00
2018-03-12T01:34:03.915Z,9.25
2018-03-12T01:36:36.000Z,9.25
2018-03-12T01:39:07.077Z,8.00
2018-03-12T01:41:38.540Z,8.00
2018-03-12T01:44:10.757Z,9.75
2018-03-12T01:46:42.523Z,10.75
2018-03-12T01:49:15.382Z,9.00
2018-03-12T01:51:47.589Z,9.75
2018-03-12T01:54:19.363Z,9.75
2018-03-12T01:56:50.655Z,9.00
2018-03-12T01:59:22.117Z,9.75
2018-03-12T02:01:56.076Z,9.00
2018-03-12T02:04:27.712Z,9.25
2018-03-12T02:07:00.689Z,10.75
2018-03-12T02:09:32.097Z,9.00
2018-03-12T02:12:04.151Z,8.75
2018-03-12T02:14:35.586Z,10.75
2018-03-12T02:17:08.208Z,9.00
2018-03-12T02:19:40.705Z,10.75
2018-03-12T02:22:12.623Z,9.00
2018-03-12T02:24:44.246Z,9.00
2018-03-12T02:27:19.844Z,9.00
2018-03-12T02:29:51.027Z,8.75
2018-03-12T02:32:30.746Z,9.25
2018-03-12T02:35:03.600Z,9.00
2018-03-12T02:37:38.085Z,8.75
2018-03-12T02:40:10.592Z,9.75
2018-03-12T02:42:41.997Z,12.00
2018-03-12T02:45:17.067Z,8.75
2018-03-12T02:47:48.436Z,11.00
2018-03-12T02:50:19.397Z,9.00
2018-03-12T02:52:50.903Z,10.50
2018-03-12T02:55:21.922Z,9.00
2018-03-12T02:57:53.373Z,9.00
2018-03-12T03:00:25.303Z,9.25
2018-03-12T03:02:56.491Z,12.00
2018-03-12T03:05:27.504Z,11.25
2018-03-12T03:08:03.721Z,8.75
2018-03-12T03:10:34.765Z,12.25
2018-03-12T03:13:06.468Z,11.25
2018-03-12T03:15:37.887Z,11.25
2018-03-12T03:18:12.197Z,9.50
2018-03-12T03:20:42.957Z,10.75
2018-03-12T03:23:14.101Z,11.50
2018-03-12T03:25:45.185Z,12.00
2018-03-12T03:28:16.324Z,12.75
2018-03-12T03:30:49.586Z,11.75
2018-03-12T03:33:27.872Z,12.00
2018-03-12T03:36:04.560Z,12.00
2018-03-12T03:38:35.361Z,11.50
2018-03-12T03:41:06.164Z,11.50
2018-03-12T03:43:36.717Z,10.75
2018-03-12T03:46:07.651Z,11.00
2018-03-12T03:48:38.580Z,10.75
2018-03-12T03:51:10.034Z,12.50
2018-03-12T03:53:41.246Z,12.50
2018-03-12T03:56:11.956Z,12.50
2018-03-12T03:58:47.665Z,12.75
2018-03-12T04:01:19.460Z,10.75
2018-03-12T04:03:50.500Z,12.00
2018-03-12T04:06:21.391Z,12.75
2018-03-12T04:08:51.831Z,11.75
2018-03-12T04:11:22.507Z,11.25
2018-03-12T04:13:53.026Z,12.75
2018-03-12T04:16:23.819Z,12.50
2018-03-12T04:18:54.876Z,12.50
2018-03-12T04:21:26.742Z,15.25
2018-03-12T04:23:57.095Z,14.75
2018-03-12T04:26:30.883Z,14.75
2018-03-12T04:29:01.922Z,13.50
2018-03-12T04:31:33.379Z,12.25
2018-03-12T04:34:03.878Z,12.00
2018-03-12T04:36:34.918Z,13.00
2018-03-12T04:39:05.722Z,15.00
2018-03-12T04:41:37.037Z,14.00
2018-03-12T04:44:07.750Z,14.75
2018-03-12T04:46:39.119Z,13.00
2018-03-12T04:49:10.077Z,13.25
2018-03-12T04:51:41.007Z,14.50
2018-03-12T04:54:11.811Z,13.50
2018-03-12T04:56:42.696Z,13.00
2018-03-12T04:59:13.799Z,13.25
2018-03-12T05:01:45.078Z,16.00
2018-03-12T05:04:16.825Z,14.75
2018-03-12T05:06:47.568Z,12.25
2018-03-12T05:09:18.056Z,14.75
2018-03-12T05:11:49.530Z,13.75
2018-03-12T05:14:20.128Z,15.25
2018-03-12T05:16:51.912Z,13.75
2018-03-12T05:19:22.937Z,15.50
2018-03-12T05:21:54.424Z,17.25
2018-03-12T05:24:25.815Z,14.25
2018-03-12T05:26:57.166Z,11.75
2018-03-12T05:29:28.183Z,15.00
2018-03-12T05:31:59.685Z,15.25
2018-03-12T05:34:30.991Z,15.25
2018-03-12T05:37:02.174Z,14.50
2018-03-12T05:39:33.939Z,15.00
2018-03-12T05:42:06.242Z,14.00
2018-03-12T05:44:37.434Z,13.00
2018-03-12T05:47:09.370Z,12.25
2018-03-12T05:49:41.233Z,12.00
2018-03-12T05:52:13.631Z,13.00
2018-03-12T05:57:24.538Z,14.00
2018-03-12T05:59:55.904Z,14.25
2018-03-12T06:02:28.566Z,16.00
2018-03-12T06:05:00.028Z,14.75
2018-03-12T06:07:31.344Z,15.00
2018-03-12T06:10:02.342Z,13.50
2018-03-12T06:12:34.510Z,16.00
2018-03-12T06:15:08.447Z,17.25
2018-03-12T06:17:41.389Z,15.00
2018-03-12T06:20:13.220Z,15.50
2018-03-12T06:22:48.375Z,17.50
2018-03-12T06:25:20.549Z,16.75
2018-03-12T06:27:51.928Z,15.75
2018-03-12T06:30:24.761Z,16.00
2018-03-12T06:32:56.188Z,16.75
2018-03-12T06:35:30.074Z,18.50
2018-03-12T06:38:01.697Z,18.75
2018-03-12T06:40:34.772Z,19.00
2018-03-12T06:43:06.256Z,16.00
2018-03-12T06:45:37.992Z,16.75
2018-03-12T06:48:30.647Z,15.00
2018-03-12T06:51:04.335Z,16.50
2018-03-12T06:53:36.192Z,14.50
2018-03-12T06:56:07.717Z,16.00
2018-03-12T06:58:39.346Z,15.75
2018-03-12T07:01:10.659Z,16.25
2018-03-12T07:03:42.793Z,17.75
2018-03-12T07:06:20.662Z,16.75
2018-03-12T07:08:54.967Z,18.75
2018-03-12T07:11:27.117Z,15.25
2018-03-12T07:14:00.116Z,17.25
2018-03-12T07:16:32.904Z,17.25
2018-03-12T07:19:04.968Z,18.50
2018-03-12T07:21:36.371Z,16.00
2018-03-12T07:24:08.028Z,19.00
2018-03-12T07:26:39.264Z,18.00
2018-03-12T07:29:10.671Z,18.75
2018-03-12T07:31:44.173Z,15.25
2018-03-12T07:34:16.721Z,16.50
2018-03-12T07:36:48.870Z,15.75
2018-03-12T07:39:21.144Z,16.00
2018-03-12T07:41:52.261Z,15.00
2018-03-12T07:44:25.185Z,15.75
2018-03-12T07:46:56.633Z,16.00
2018-03-12T07:49:28.378Z,18.75
2018-03-12T07:52:00.878Z,16.00
2018-03-12T07:54:35.300Z,17.00
2018-03-12T07:57:07.363Z,17.75
2018-03-12T07:59:40.193Z,19.00
2018-03-12T08:02:12.780Z,17.00
2018-03-12T08:04:45.849Z,19.25
2018-03-12T08:07:17.875Z,17.25
2018-03-12T08:09:50.287Z,17.75
2018-03-12T08:12:23.832Z,19.25
2018-03-12T08:14:56.072Z,21.00
2018-03-12T08:17:28.627Z,18.00
2018-03-12T08:20:00.016Z,19.25
2018-03-12T08:22:31.936Z,19.00
2018-03-12T08:25:03.696Z,16.00
2018-03-12T08:27:35.744Z,17.50
2018-03-12T08:30:09.783Z,16.50
2018-03-12T08:32:48.396Z,17.25
2018-03-12T08:35:21.242Z,17.25
2018-03-12T08:37:54.013Z,18.75
2018-03-12T08:40:25.359Z,17.25
2018-03-12T08:42:57.908Z,19.75
2018-03-12T08:45:30.980Z,17.75
2018-03-12T08:48:03.633Z,17.75
2018-03-12T08:50:35.086Z,19.75
2018-03-12T08:53:07.386Z,15.75
2018-03-12T08:55:39.918Z,17.25
2018-03-12T08:58:19.442Z,18.50
2018-03-12T09:01:05.521Z,17.75
2018-03-12T09:03:38.671Z,18.00
2018-03-12T09:06:19.761Z,17.50
2018-03-12T09:08:51.779Z,18.50
2018-03-12T09:11:33.930Z,16.75
2018-03-12T09:14:13.551Z,19.00
2018-03-12T09:16:46.853Z,18.25
2018-03-12T09:19:19.807Z,16.75
2018-03-12T09:21:51.200Z,14.50
2018-03-12T09:24:30.064Z,14.25
2018-03-12T09:27:02.887Z,14.25
2018-03-12T09:29:35.002Z,16.00
2018-03-12T09:32:08.838Z,16.00
2018-03-12T09:34:41.167Z,15.25
2018-03-12T09:37:13.297Z,13.25
2018-03-12T09:39:45.033Z,12.50
2018-03-12T09:42:17.385Z,14.75
2018-03-12T09:44:49.992Z,15.00
2018-03-12T09:47:23.139Z,15.00
2018-03-12T09:50:01.055Z,14.00
2018-03-12T09:52:33.317Z,15.25
2018-03-12T09:55:05.662Z,14.75
2018-03-12T09:57:37.143Z,13.75
2018-03-12T10:00:09.833Z,14.25
2018-03-12T10:02:41.919Z,14.75
2018-03-12T10:05:34.817Z,15.75
2018-03-12T10:08:06.901Z,14.75
2018-03-12T10:10:39.085Z,15.75
2018-03-12T10:13:11.467Z,11.25
2018-03-12T10:15:44.580Z,13.25
2018-03-12T10:18:16.464Z,13.00
2018-03-12T10:20:59.259Z,12.00
2018-03-12T10:23:33.036Z,12.25
2018-03-12T10:26:10.476Z,10.75
2018-03-12T10:28:43.948Z,12.00
2018-03-12T10:31:18.636Z,9.00
2018-03-12T10:33:52.255Z,11.75
2018-03-12T10:36:24.534Z,10.75
2018-03-12T10:38:57.519Z,9.00
2018-03-12T10:41:36.554Z,8.00
2018-03-12T10:44:08.659Z,8.00
2018-03-12T10:46:46.150Z,7.75
2018-03-12T10:49:18.968Z,8.00
2018-03-12T10:51:57.157Z,7.75
2018-03-12T10:54:28.658Z,8.00
2018-03-12T10:57:07.449Z,8.50
2018-03-12T10:59:43.650Z,8.75
2018-03-12T11:02:39.946Z,6.75
2018-03-12T11:05:13.673Z,8.50
2018-03-12T11:07:57.861Z,8.00
2018-03-12T11:10:32.168Z,9.00
2018-03-12T11:13:04.505Z,8.00
2018-03-12T11:18:28.880Z,10.00
2018-03-12T11:21:00.571Z,8.50
2018-03-12T11:23:31.704Z,10.25
2018-03-12T11:26:14.833Z,7.50
2018-03-12T11:28:47.868Z,6.75
2018-03-12T11:31:20.523Z,6.75
2018-03-12T11:33:52.303Z,6.75
2018-03-12T11:36:28.383Z,8.00
2018-03-12T11:39:00.134Z,10.50
2018-03-12T11:41:31.276Z,8.25
2018-03-12T11:44:02.086Z,8.00
2018-03-12T11:46:40.339Z,8.75
2018-03-12T11:49:12.119Z,8.25
2018-03-12T11:51:45.765Z,5.50
2018-03-12T11:54:17.347Z,5.00
2018-03-12T11:56:48.509Z,5.50
2018-03-12T11:59:22.601Z,4.75
2018-03-12T12:02:19.387Z,5.00
2018-03-12T12:04:54.083Z,7.75
2018-03-12T12:07:38.978Z,4.00
2018-03-12T12:10:11.994Z,4.00
2018-03-12T12:12:44.288Z,5.00
2018-03-12T12:15:20.004Z,4.00
2018-03-12T12:17:52.544Z,4.25
2018-03-12T12:20:24.018Z,3.00
2018-03-12T12:22:57.326Z,3.75
2018-03-12T12:25:33.972Z,3.75
2018-03-12T12:28:06.157Z,2.00
2018-03-12T12:30:44.980Z,3.00
2018-03-12T12:33:17.531Z,3.00
2018-03-12T12:35:51.728Z,3.00
2018-03-12T12:38:27.129Z,2.00
2018-03-12T12:40:59.472Z,3.00
2018-03-12T12:43:32.289Z,3.00
2018-03-12T12:46:04.329Z,3.00
2018-03-12T12:48:36.471Z,2.25
2018-03-12T12:51:07.445Z,3.00
2018-03-12T12:53:38.904Z,2.00
2018-03-12T12:56:13.946Z,1.25
2018-03-12T12:58:46.420Z,1.25
2018-03-12T13:01:20.628Z,1.00
2018-03-12T13:03:51.542Z,1.25
2018-03-12T13:06:22.995Z,2.00
2018-03-12T13:08:54.701Z,3.00
2018-03-12T13:11:25.821Z,2.75
2018-03-12T13:13:58.177Z,1.50
2018-03-12T13:16:30.156Z,1.00
2018-03-12T13:19:01.776Z,1.50
2018-03-12T13:21:33.452Z,2.00
2018-03-12T13:24:05.589Z,3.00
2018-03-12T13:26:39.317Z,3.50
2018-03-12T13:29:10.927Z,1.25
2018-03-12T13:31:42.718Z,4.00
2018-03-12T13:34:30.216Z,4.00
2018-03-12T13:37:03.813Z,1.00
2018-03-12T13:39:35.129Z,1.00
2018-03-12T13:42:06.513Z,1.00
2018-03-12T13:44:39.664Z,1.25
2018-03-12T13:47:10.601Z,0.50
2018-03-12T13:49:41.421Z,6.00
2018-03-12T13:52:12.164Z,2.25
2018-03-12T13:54:43.160Z,1.00
2018-03-12T13:57:14.711Z,1.00
2018-03-12T13:59:46.806Z,1.00
2018-03-12T14:02:20.250Z,1.00
2018-03-12T14:04:52.431Z,1.75
2018-03-12T14:07:36.296Z,2.50
2018-03-12T14:10:09.963Z,3.75
2018-03-12T14:12:41.077Z,1.00
2018-03-12T14:15:17.320Z,1.00
2018-03-12T14:17:49.263Z,1.50
2018-03-12T14:20:21.724Z,1.00
2018-03-12T14:22:56.934Z,1.75
2018-03-12T14:25:29.869Z,3.25
2018-03-12T14:31:01.927Z,0.00
2018-03-12T14:33:34.461Z,1.00
2018-03-12T14:36:06.335Z,1.25
2018-03-12T14:38:38.057Z,2.00
2018-03-12T14:41:09.348Z,4.25
2018-03-12T14:43:40.747Z,1.00
2018-03-12T14:46:12.478Z,1.00
2018-03-12T14:48:44.386Z,1.00
2018-03-12T14:51:15.524Z,2.00
2018-03-12T14:53:48.198Z,2.00
2018-03-12T14:56:21.202Z,2.00
2018-03-12T14:58:52.214Z,2.00
2018-03-12T15:01:28.264Z,2.00
2018-03-12T15:06:39.088Z,2.00
2018-03-12T15:09:10.300Z,2.00
2018-03-12T15:11:42.630Z,2.00
2018-03-12T15:16:47.166Z,0.00
2018-03-12T15:19:18.782Z,1.00
2018-03-12T15:22:00.744Z,1.00
2018-03-12T15:24:33.002Z,1.00
2018-03-12T15:27:06.249Z,0.25
2018-03-12T15:29:38.862Z,1.00
2018-03-12T15:32:13.079Z,2.50
2018-03-12T15:34:45.138Z,1.25
2018-03-12T15:37:17.060Z,1.25
2018-03-12T15:39:48.353Z,2.00
2018-03-12T15:42:20.312Z,1.00
2018-03-12T15:44:52.320Z,0.25
2018-03-12T15:47:25.780Z,1.00
2018-03-12T15:50:00.313Z,2.00
2018-03-12T15:52:32.201Z,2.00
2018-03-12T15:55:06.839Z,1.00
2018-03-12T15:57:40.837Z,3.50
2018-03-12T16:00:17.821Z,1.00
2018-03-12T16:02:51.049Z,2.75
2018-03-12T16:05:22.262Z,1.00
2018-03-12T16:07:53.285Z,1.00
2018-03-12T16:10:26.283Z,1.00
2018-03-12T16:12:58.220Z,1.00
2018-03-12T16:15:30.878Z,1.75
2018-03-12T16:18:05.044Z,1.00
2018-03-12T16:20:37.873Z,2.00
2018-03-12T16:26:13.188Z,2.00
2018-03-12T16:28:46.431Z,5.25
2018-03-12T16:36:41.440Z,3.00
2018-03-12T16:41:57.154Z,1.50
2018-03-12T16:44:29.627Z,1.00
2018-03-12T16:47:02.290Z,2.50
2018-03-12T16:49:33.966Z,2.00
2018-03-12T16:52:06.347Z,1.00
2018-03-12T16:54:41.552Z,0.75
2018-03-12T16:57:20.722Z,2.00
2018-03-12T16:59:52.014Z,1.00
2018-03-12T17:05:06.106Z,3.00
2018-03-12T17:07:38.536Z,1.00
2018-03-12T17:10:10.133Z,5.00
2018-03-12T17:12:41.521Z,2.00
2018-03-12T17:15:17.905Z,1.00
2018-03-12T17:17:49.011Z,1.75
2018-03-12T17:20:20.350Z,0.00
2018-03-12T17:25:28.825Z,5.00
2018-03-12T17:28:01.175Z,1.00
2018-03-12T17:30:33.828Z,4.00
2018-03-12T17:33:05.000Z,3.00
2018-03-12T17:35:37.036Z,5.00
2018-03-12T17:38:09.891Z,3.00
2018-03-12T17:40:43.889Z,1.00
2018-03-12T17:43:18.118Z,6.00
2018-03-12T17:45:52.246Z,1.00
2018-03-12T17:48:24.731Z,3.00
2018-03-12T17:50:57.452Z,1.00
2018-03-12T17:53:30.438Z,4.00
2018-03-12T17:56:07.796Z,0.25
2018-03-12T17:58:40.086Z,1.00
2018-03-12T18:01:12.975Z,2.00
2018-03-12T18:03:50.294Z,1.00
2018-03-12T18:06:24.950Z,1.00
2018-03-12T18:09:14.968Z,1.00
2018-03-12T18:11:47.980Z,0.75
2018-03-12T18:14:20.702Z,1.00
2018-03-12T18:16:53.560Z,1.50
2018-03-12T18:19:27.858Z,1.00
2018-03-12T18:22:02.067Z,1.50
2018-03-12T18:24:40.242Z,2.00
2018-03-12T18:27:20.106Z,1.25
2018-03-12T18:29:53.999Z,3.00
2018-03-12T18:32:27.030Z,3.00
2018-03-12T18:35:00.759Z,2.50
2018-03-12T18:37:34.370Z,2.00
2018-03-12T18:40:17.604Z,1.75
2018-03-12T18:42:50.495Z,2.25
2018-03-12T18:45:29.004Z,3.00
2018-03-12T18:48:11.051Z,4.50
2018-03-12T18:50:45.470Z,2.50
2018-03-12T18:53:17.709Z,6.75
2018-03-12T18:55:53.045Z,3.50
2018-03-12T18:58:27.359Z,6.50
2018-03-12T19:01:06.745Z,2.00
2018-03-12T19:03:52.553Z,6.25
2018-03-12T19:06:40.703Z,7.00
2018-03-12T19:09:17.122Z,3.00
2018-03-12T19:11:52.842Z,2.00
2018-03-12T19:14:29.285Z,3.00
2018-03-12T19:17:04.343Z,3.75
2018-03-12T19:19:44.604Z,3.00
2018-03-12T19:22:17.689Z,4.75
2018-03-12T19:24:49.953Z,4.75
2018-03-12T19:27:23.345Z,7.25
2018-03-12T19:32:44.077Z,5.00
2018-03-12T19:35:18.274Z,3.75
2018-03-12T19:37:52.861Z,1.00
2018-03-12T19:40:27.069Z,2.75
2018-03-12T19:43:04.885Z,3.75
2018-03-12T19:45:39.364Z,1.75
2018-03-12T19:48:17.032Z,3.75
2018-03-12T19:50:54.486Z,2.00
2018-03-12T19:53:28.899Z,1.00
2018-03-12T19:56:05.081Z,1.00
2018-03-12T19:58:39.867Z,2.00
2018-03-12T20:01:15.976Z,2.75
2018-03-12T20:03:51.948Z,2.00
2018-03-12T20:06:30.779Z,2.00
2018-03-12T20:09:14.770Z,3.25
2018-03-12T20:11:51.053Z,1.75
2018-03-12T20:14:30.237Z,0.25
2018-03-12T20:17:10.249Z,1.25
2018-03-12T20:19:43.221Z,2.00
2018-03-12T20:22:17.781Z,1.25
2018-03-12T20:24:55.132Z,1.75
2018-03-12T20:27:36.693Z,1.25
2018-03-12T20:30:25.658Z,1.50
2018-03-12T20:32:58.648Z,2.00
2018-03-12T20:35:32.606Z,1.25
2018-03-12T20:38:05.032Z,1.00
2018-03-12T20:40:40.268Z,1.00
2018-03-12T20:43:15.002Z,1.25
2018-03-12T20:45:48.736Z,1.75
2018-03-12T20:48:23.675Z,1.75
2018-03-12T20:50:55.548Z,2.00
2018-03-12T20:53:28.341Z,2.00
2018-03-12T20:56:01.791Z,4.00
2018-03-12T20:58:34.349Z,2.00
2018-03-12T21:01:08.986Z,2.00
2018-03-12T21:03:46.321Z,4.00
2018-03-12T21:06:19.994Z,1.50
2018-03-12T21:08:54.286Z,2.50
2018-03-12T21:11:26.156Z,1.75
2018-03-12T21:14:01.308Z,1.50
2018-03-12T21:16:35.463Z,2.00
2018-03-12T21:19:11.441Z,2.00
2018-03-12T21:21:46.096Z,2.00
2018-03-12T21:24:18.736Z,1.00
2018-03-12T21:26:51.420Z,2.00
2018-03-12T21:29:23.828Z,2.00
2018-03-12T21:32:06.162Z,1.00
2018-03-12T21:34:38.010Z,2.00
2018-03-12T21:37:16.012Z,1.50
2018-03-12T21:39:50.096Z,2.50
2018-03-12T21:42:22.023Z,3.00
2018-03-12T21:44:56.079Z,2.00
2018-03-12T21:47:28.022Z,2.50
2018-03-12T21:49:59.936Z,2.00
2018-03-12T21:52:31.182Z,4.00
2018-03-12T21:55:02.682Z,2.50
2018-03-12T22:00:18.750Z,1.25
2018-03-12T22:02:50.084Z,3.50
2018-03-12T22:05:21.448Z,2.00
2018-03-12T22:07:53.756Z,2.50
2018-03-12T22:10:24.623Z,3.00
2018-03-12T22:12:55.665Z,5.25
2018-03-12T22:15:27.194Z,2.00
2018-03-12T22:17:58.923Z,2.50
2018-03-12T22:20:29.856Z,2.00
2018-03-12T22:23:00.679Z,2.00
2018-03-12T22:25:32.774Z,2.00
2018-03-12T22:28:03.681Z,4.00
2018-03-12T22:30:35.027Z,4.00
2018-03-12T22:33:10.920Z,4.00
2018-03-12T22:35:42.053Z,2.50
2018-03-12T22:38:13.088Z,4.00
2018-03-12T22:40:44.459Z,3.50
2018-03-12T22:43:15.473Z,4.00
2018-03-12T22:45:49.492Z,3.50
2018-03-12T22:48:21.216Z,4.00
2018-03-12T22:50:52.274Z,4.00
2018-03-12T22:53:23.395Z,2.00
2018-03-12T22:55:54.614Z,3.75
2018-03-12T22:58:25.457Z,5.00
2018-03-12T23:00:57.639Z,3.50
2018-03-12T23:03:29.098Z,4.00
2018-03-12T23:05:59.935Z,2.00
2018-03-12T23:08:31.179Z,3.00
2018-03-12T23:11:02.375Z,3.00
2018-03-12T23:13:33.346Z,2.00
2018-03-12T23:16:05.298Z,2.00
2018-03-12T23:18:36.173Z,2.00
2018-03-12T23:21:07.952Z,7.50
2018-03-12T23:23:49.857Z,2.50
2018-03-12T23:26:20.908Z,4.00
2018-03-12T23:28:51.977Z,4.00
2018-03-12T23:31:23.726Z,2.00
2018-03-12T23:33:54.796Z,2.00
2018-03-12T23:36:26.548Z,2.00
2018-03-12T23:38:57.617Z,2.00
2018-03-12T23:41:29.025Z,3.00
2018-03-12T23:44:01.189Z,2.00
2018-03-12T23:46:32.635Z,2.00
2018-03-12T23:49:03.838Z,3.00
2018-03-12T23:51:35.234Z,2.00
2018-03-12T23:54:06.476Z,2.00
2018-03-12T23:56:37.399Z,2.00
2018-03-12T23:59:08.464Z,2.00
